createdAt,value
2019-03-30T00:00:55.300Z,6.84
2019-03-30T00:03:25.450Z,6.83
2019-03-30T00:05:55.619Z,6.72
2019-03-30T00:08:25.806Z,7.15
2019-03-30T00:10:55.974Z,6.77
2019-03-30T00:13:26.246Z,6.70
2019-03-30T00:15:56.377Z,6.82
2019-03-30T00:18:26.530Z,6.86
2019-03-30T00:20:56.781Z,6.66
2019-03-30T00:23:26.945Z,6.92
2019-03-30T00:25:57.162Z,6.56
2019-03-30T00:28:27.342Z,6.50
2019-03-30T00:30:57.519Z,6.62
2019-03-30T00:33:27.734Z,6.71
2019-03-30T00:35:57.890Z,6.80
2019-03-30T00:38:28.088Z,6.70
2019-03-30T00:40:58.231Z,6.63
2019-03-30T00:43:28.411Z,6.89
2019-03-30T00:45:58.599Z,6.62
2019-03-30T00:48:28.759Z,6.77
2019-03-30T00:50:58.974Z,6.59
2019-03-30T00:53:29.161Z,5.84
2019-03-30T00:55:59.301Z,6.38
2019-03-30T00:58:29.551Z,6.17
2019-03-30T01:01:00.019Z,6.28
2019-03-30T01:03:30.239Z,6.23
2019-03-30T01:06:00.482Z,6.24
2019-03-30T01:08:30.644Z,6.17
2019-03-30T01:11:00.905Z,6.08
2019-03-30T01:13:31.083Z,6.05
2019-03-30T01:16:01.308Z,5.97
2019-03-30T01:18:31.581Z,5.69
2019-03-30T01:21:01.700Z,5.90
2019-03-30T01:23:31.887Z,5.69
2019-03-30T01:26:02.050Z,5.87
2019-03-30T01:28:32.291Z,6.00
2019-03-30T01:31:02.433Z,6.02
2019-03-30T01:33:32.610Z,5.90
2019-03-30T01:36:02.783Z,5.75
2019-03-30T01:38:32.961Z,6.04
2019-03-30T01:41:03.287Z,5.68
2019-03-30T01:43:33.506Z,5.87
2019-03-30T01:46:03.864Z,5.66
2019-03-30T01:48:34.048Z,5.42
2019-03-30T01:51:04.342Z,5.70
2019-03-30T01:53:34.613Z,6.01
2019-03-30T01:56:05.267Z,5.88
2019-03-30T01:58:35.436Z,6.03
2019-03-30T02:01:05.742Z,5.78
2019-03-30T02:03:35.897Z,5.79
2019-03-30T02:06:06.136Z,5.76
2019-03-30T02:08:36.325Z,6.69
2019-03-30T02:11:06.649Z,6.36
2019-03-30T02:13:36.861Z,6.17
2019-03-30T02:16:07.128Z,5.98
2019-03-30T02:18:37.537Z,6.06
2019-03-30T02:21:07.671Z,5.91
2019-03-30T02:23:37.905Z,6.05
2019-03-30T02:26:08.071Z,6.02
2019-03-30T02:28:38.251Z,6.16
2019-03-30T02:31:08.573Z,6.01
2019-03-30T02:33:38.809Z,6.05
2019-03-30T02:36:09.160Z,6.08
2019-03-30T02:38:39.363Z,6.13
2019-03-30T02:41:09.580Z,5.95
2019-03-30T02:43:39.854Z,6.08
2019-03-30T02:46:10.014Z,6.07
2019-03-30T02:48:40.173Z,5.89
2019-03-30T02:51:10.370Z,5.58
2019-03-30T02:53:40.698Z,5.87
2019-03-30T02:56:10.899Z,6.03
2019-03-30T02:58:41.059Z,6.08
2019-03-30T03:01:11.308Z,5.96
2019-03-30T03:03:41.479Z,5.86
2019-03-30T03:06:11.745Z,5.64
2019-03-30T03:08:42.012Z,5.60
2019-03-30T03:11:12.181Z,5.96
2019-03-30T03:13:42.369Z,5.72
2019-03-30T03:16:12.605Z,5.81
2019-03-30T03:18:42.720Z,5.87
2019-03-30T03:21:12.927Z,5.93
2019-03-30T03:23:43.118Z,5.84
2019-03-30T03:26:13.241Z,5.84
2019-03-30T03:28:43.426Z,5.66
2019-03-30T03:31:13.626Z,5.67
2019-03-30T03:33:43.862Z,6.13
2019-03-30T03:36:14.028Z,5.81
2019-03-30T03:38:44.190Z,6.34
2019-03-30T03:41:14.384Z,6.41
2019-03-30T03:43:44.544Z,6.47
2019-03-30T03:46:14.823Z,6.64
2019-03-30T03:48:45.023Z,6.65
2019-03-30T03:51:25.820Z,6.31
2019-03-30T03:53:47.807Z,6.54
2019-03-30T03:56:18.526Z,6.43
2019-03-30T03:58:49.409Z,6.41
2019-03-30T04:01:22.636Z,6.38
2019-03-30T04:03:56.257Z,6.43
2019-03-30T04:06:28.347Z,6.52
2019-03-30T04:09:01.457Z,6.19
2019-03-30T04:11:33.053Z,6.50
2019-03-30T04:14:04.373Z,6.51
2019-03-30T04:16:34.639Z,6.61
2019-03-30T04:19:04.845Z,6.82
2019-03-30T04:21:43.874Z,6.81
2019-03-30T04:24:07.144Z,6.56
2019-03-30T04:26:37.313Z,6.20
2019-03-30T04:29:07.555Z,6.27
2019-03-30T04:31:37.713Z,5.82
2019-03-30T04:34:07.948Z,5.88
2019-03-30T04:36:38.177Z,5.68
2019-03-30T04:39:08.441Z,5.64
2019-03-30T04:41:38.591Z,5.63
2019-03-30T04:44:08.729Z,5.51
2019-03-30T04:46:38.912Z,5.71
2019-03-30T04:49:09.106Z,6.06
2019-03-30T04:51:39.334Z,5.70
2019-03-30T04:54:09.563Z,5.65
2019-03-30T04:56:39.781Z,5.76
2019-03-30T04:59:09.994Z,5.53
2019-03-30T05:01:40.149Z,5.86
2019-03-30T05:04:10.309Z,6.10
2019-03-30T05:06:40.488Z,6.16
2019-03-30T05:09:10.683Z,6.43
2019-03-30T05:11:40.919Z,6.64
2019-03-30T05:14:11.119Z,6.95
2019-03-30T05:16:41.409Z,6.61
2019-03-30T05:19:11.582Z,7.15
2019-03-30T05:21:41.812Z,7.02
2019-03-30T05:24:12.080Z,7.00
2019-03-30T05:26:42.245Z,6.65
2019-03-30T05:29:12.425Z,7.33
2019-03-30T05:31:42.597Z,7.64
2019-03-30T05:34:12.742Z,7.95
2019-03-30T05:36:42.942Z,8.32
2019-03-30T05:39:13.074Z,8.15
2019-03-30T05:41:43.210Z,7.79
2019-03-30T05:44:13.405Z,7.59
2019-03-30T05:46:43.549Z,7.47
2019-03-30T05:49:13.762Z,7.31
2019-03-30T05:51:43.935Z,7.59
2019-03-30T05:54:14.086Z,7.66
2019-03-30T05:56:44.246Z,8.40
2019-03-30T05:59:14.412Z,8.60
2019-03-30T06:01:44.646Z,9.01
2019-03-30T06:04:14.787Z,9.00
2019-03-30T06:06:44.932Z,9.10
2019-03-30T06:09:15.066Z,9.86
2019-03-30T06:11:45.258Z,10.29
2019-03-30T06:14:15.451Z,10.01
2019-03-30T06:16:45.610Z,10.57
2019-03-30T06:19:15.736Z,10.86
2019-03-30T06:21:45.894Z,10.72
2019-03-30T06:24:16.370Z,10.43
2019-03-30T06:26:46.508Z,10.24
2019-03-30T06:29:16.648Z,10.71
2019-03-30T06:31:46.988Z,10.79
2019-03-30T06:34:17.095Z,10.95
2019-03-30T06:36:47.212Z,11.04
2019-03-30T06:39:17.371Z,11.44
2019-03-30T06:41:47.571Z,11.16
2019-03-30T06:44:17.737Z,11.66
2019-03-30T06:46:47.881Z,11.67
2019-03-30T06:49:18.055Z,11.71
2019-03-30T06:51:51.679Z,11.91
2019-03-30T06:54:22.557Z,12.05
2019-03-30T06:56:52.759Z,11.96
2019-03-30T06:59:23.121Z,11.64
2019-03-30T07:01:53.845Z,11.43
2019-03-30T07:04:24.223Z,12.05
2019-03-30T07:06:54.587Z,11.99
2019-03-30T07:09:27.026Z,11.93
2019-03-30T07:12:00.683Z,12.24
2019-03-30T07:14:36.142Z,12.16
2019-03-30T07:17:07.820Z,12.16
2019-03-30T07:19:41.064Z,12.52
2019-03-30T07:22:12.446Z,12.16
2019-03-30T07:24:42.598Z,11.96
2019-03-30T07:27:12.942Z,12.30
2019-03-30T07:29:43.298Z,12.35
2019-03-30T07:32:13.585Z,12.06
2019-03-30T07:34:43.981Z,12.12
2019-03-30T07:37:14.165Z,12.62
2019-03-30T07:39:44.443Z,11.53
2019-03-30T07:42:14.985Z,11.75
2019-03-30T07:44:45.305Z,12.33
2019-03-30T07:47:15.586Z,12.41
2019-03-30T07:49:45.866Z,12.47
2019-03-30T07:52:16.091Z,12.40
2019-03-30T07:54:49.422Z,12.25
2019-03-30T07:57:19.704Z,12.02
2019-03-30T07:59:51.104Z,11.73
2019-03-30T08:02:22.318Z,12.32
2019-03-30T08:04:52.630Z,12.55
2019-03-30T08:07:22.977Z,12.47
2019-03-30T08:09:53.259Z,12.66
2019-03-30T08:12:23.605Z,12.80
2019-03-30T08:14:53.829Z,13.11
2019-03-30T08:17:24.136Z,13.31
2019-03-30T08:19:54.367Z,13.70
2019-03-30T08:22:24.655Z,12.43
2019-03-30T08:24:55.022Z,12.06
2019-03-30T08:27:25.268Z,12.07
2019-03-30T08:29:55.509Z,12.16
2019-03-30T08:32:25.910Z,11.99
2019-03-30T08:34:56.343Z,12.21
2019-03-30T08:37:26.726Z,13.02
2019-03-30T08:39:57.059Z,13.07
2019-03-30T08:42:27.224Z,12.94
2019-03-30T08:44:57.370Z,13.21
2019-03-30T08:47:27.551Z,13.48
2019-03-30T08:49:58.914Z,12.77
2019-03-30T08:52:29.399Z,13.77
2019-03-30T08:54:59.860Z,13.97
2019-03-30T08:57:30.154Z,13.72
2019-03-30T09:00:00.413Z,13.05
2019-03-30T09:02:30.658Z,12.67
2019-03-30T09:05:00.877Z,12.70
2019-03-30T09:07:31.107Z,12.74
2019-03-30T09:10:01.367Z,12.76
2019-03-30T09:12:31.589Z,12.75
2019-03-30T09:15:02.011Z,12.57
2019-03-30T09:17:32.244Z,12.58
2019-03-30T09:20:02.385Z,12.80
2019-03-30T09:22:32.556Z,12.99
2019-03-30T09:25:02.923Z,12.52
2019-03-30T09:27:33.105Z,12.67
2019-03-30T09:30:03.306Z,12.51
2019-03-30T09:32:33.556Z,13.16
2019-03-30T09:35:03.826Z,12.85
2019-03-30T09:37:34.105Z,12.96
2019-03-30T09:40:04.486Z,12.76
2019-03-30T09:42:34.661Z,12.40
2019-03-30T09:45:05.661Z,12.75
2019-03-30T09:47:36.320Z,13.08
2019-03-30T09:50:07.690Z,13.00
2019-03-30T09:52:38.081Z,12.78
2019-03-30T09:55:08.523Z,13.36
2019-03-30T09:57:39.459Z,13.14
2019-03-30T10:00:17.687Z,13.01
2019-03-30T10:02:51.975Z,13.56
2019-03-30T10:05:22.177Z,13.09
2019-03-30T10:07:52.312Z,13.17
2019-03-30T10:10:22.527Z,13.13
2019-03-30T10:12:52.679Z,12.81
2019-03-30T10:15:22.937Z,12.52
2019-03-30T10:17:53.223Z,13.16
2019-03-30T10:20:23.475Z,13.02
2019-03-30T10:22:53.716Z,13.01
2019-03-30T10:25:23.897Z,12.80
2019-03-30T10:27:54.101Z,12.61
2019-03-30T10:30:24.337Z,12.58
2019-03-30T10:32:54.567Z,12.74
2019-03-30T10:35:24.785Z,13.09
2019-03-30T10:37:54.998Z,13.18
2019-03-30T10:40:25.134Z,13.28
2019-03-30T10:42:55.352Z,13.36
2019-03-30T10:45:25.485Z,13.76
2019-03-30T10:47:55.616Z,13.70
2019-03-30T10:50:25.758Z,14.21
2019-03-30T10:52:55.941Z,14.50
2019-03-30T10:55:26.103Z,14.69
2019-03-30T10:57:58.581Z,14.86
2019-03-30T11:00:39.276Z,15.11
2019-03-30T11:03:09.620Z,14.97
2019-03-30T11:05:39.778Z,15.33
2019-03-30T11:08:09.960Z,15.80
2019-03-30T11:10:40.121Z,15.82
2019-03-30T11:13:10.258Z,15.94
2019-03-30T11:15:40.424Z,16.44
2019-03-30T11:18:10.563Z,16.30
2019-03-30T11:20:40.727Z,15.96
2019-03-30T11:23:10.873Z,16.16
2019-03-30T11:25:41.073Z,17.14
2019-03-30T11:28:11.302Z,17.34
2019-03-30T11:30:41.432Z,17.22
2019-03-30T11:33:11.633Z,16.92
2019-03-30T11:35:41.802Z,16.95
2019-03-30T11:38:11.930Z,16.54
2019-03-30T11:40:42.088Z,16.61
2019-03-30T11:43:13.209Z,16.69
2019-03-30T11:45:43.398Z,16.75
2019-03-30T11:48:13.610Z,16.99
2019-03-30T11:50:44.164Z,17.23
2019-03-30T11:53:14.416Z,17.75
2019-03-30T11:55:44.644Z,17.30
2019-03-30T11:58:14.869Z,17.03
2019-03-30T12:00:45.055Z,17.54
2019-03-30T12:03:15.198Z,17.24
2019-03-30T12:05:45.436Z,16.52
2019-03-30T12:08:15.690Z,16.82
2019-03-30T12:10:45.853Z,17.04
2019-03-30T12:13:16.080Z,17.15
2019-03-30T12:15:46.248Z,18.07
2019-03-30T12:18:16.518Z,17.81
2019-03-30T12:20:46.708Z,17.82
2019-03-30T12:23:16.889Z,18.13
2019-03-30T12:25:47.089Z,18.78
2019-03-30T12:28:17.260Z,18.73
2019-03-30T12:30:47.377Z,18.49
2019-03-30T12:33:17.606Z,18.27
2019-03-30T12:35:47.828Z,18.48
2019-03-30T12:38:18.018Z,18.66
2019-03-30T12:40:48.178Z,17.65
2019-03-30T12:43:18.447Z,18.43
2019-03-30T12:45:48.617Z,18.36
2019-03-30T12:48:18.796Z,18.64
2019-03-30T12:50:49.160Z,18.08
2019-03-30T12:53:19.290Z,18.75
2019-03-30T12:55:49.886Z,18.08
2019-03-30T12:58:20.089Z,18.07
2019-03-30T13:00:50.756Z,17.54
2019-03-30T13:03:20.995Z,17.11
2019-03-30T13:05:51.106Z,17.45
2019-03-30T13:08:21.246Z,17.71
2019-03-30T13:10:51.425Z,17.78
2019-03-30T13:14:26.194Z,17.70
2019-03-30T13:17:04.291Z,17.77
2019-03-30T13:19:54.836Z,17.61
2019-03-30T13:22:25.927Z,18.06
2019-03-30T13:24:56.064Z,17.99
2019-03-30T13:27:26.265Z,17.94
2019-03-30T13:29:56.420Z,18.02
2019-03-30T13:32:26.582Z,17.75
2019-03-30T13:34:56.755Z,17.61
2019-03-30T13:37:26.905Z,17.36
2019-03-30T13:39:57.009Z,17.13
2019-03-30T13:42:27.183Z,17.02
2019-03-30T13:44:57.369Z,17.48
2019-03-30T13:47:27.474Z,17.32
2019-03-30T13:49:57.662Z,17.31
2019-03-30T13:52:27.791Z,18.05
2019-03-30T13:54:57.931Z,18.29
2019-03-30T13:57:28.160Z,18.35
2019-03-30T13:59:58.351Z,18.37
2019-03-30T14:02:28.490Z,18.05
2019-03-30T14:04:58.650Z,18.71
2019-03-30T14:07:28.801Z,18.53
2019-03-30T14:09:58.932Z,18.75
2019-03-30T14:12:29.039Z,18.65
2019-03-30T14:14:59.177Z,17.84
2019-03-30T14:17:29.408Z,17.28
2019-03-30T14:19:59.690Z,17.85
2019-03-30T14:22:29.854Z,17.69
2019-03-30T14:25:00.058Z,17.44
2019-03-30T14:27:30.191Z,17.82
2019-03-30T14:30:00.441Z,17.74
2019-03-30T14:32:30.600Z,18.17
2019-03-30T14:35:00.754Z,17.77
2019-03-30T14:37:30.873Z,17.11
2019-03-30T14:40:00.991Z,16.83
2019-03-30T14:42:31.200Z,17.00
2019-03-30T14:45:01.334Z,16.83
2019-03-30T14:47:31.439Z,16.96
2019-03-30T14:50:01.604Z,16.87
2019-03-30T14:52:31.792Z,16.90
2019-03-30T14:55:01.962Z,16.81
2019-03-30T14:57:32.092Z,16.95
2019-03-30T15:00:02.208Z,16.97
2019-03-30T15:02:32.330Z,17.09
2019-03-30T15:05:02.505Z,17.25
2019-03-30T15:07:32.641Z,17.22
2019-03-30T15:10:02.759Z,17.07
2019-03-30T15:12:32.905Z,17.19
2019-03-30T15:15:03.003Z,17.17
2019-03-30T15:17:33.121Z,17.22
2019-03-30T15:20:03.295Z,17.22
2019-03-30T15:22:33.460Z,17.26
2019-03-30T15:25:03.624Z,16.93
2019-03-30T15:27:33.767Z,16.48
2019-03-30T15:30:04.028Z,16.55
2019-03-30T15:32:34.200Z,16.51
2019-03-30T15:35:04.650Z,16.68
2019-03-30T15:37:34.780Z,16.83
2019-03-30T15:40:05.392Z,16.65
2019-03-30T15:42:35.583Z,16.58
2019-03-30T15:45:06.096Z,16.58
2019-03-30T15:47:36.211Z,16.67
2019-03-30T15:50:07.454Z,16.82
2019-03-30T15:52:37.567Z,16.78
2019-03-30T15:55:08.112Z,16.75
2019-03-30T15:57:38.284Z,16.63
2019-03-30T16:00:10.534Z,16.63
2019-03-30T16:02:40.645Z,16.66
2019-03-30T16:05:15.052Z,16.80
2019-03-30T16:07:43.477Z,16.65
2019-03-30T16:10:14.046Z,16.54
2019-03-30T16:12:44.166Z,16.50
2019-03-30T16:15:14.407Z,16.45
2019-03-30T16:17:44.577Z,16.47
2019-03-30T16:20:15.265Z,16.49
2019-03-30T16:22:45.583Z,16.40
2019-03-30T16:25:15.965Z,16.44
2019-03-30T16:27:46.090Z,16.40
2019-03-30T16:30:16.525Z,16.20
2019-03-30T16:32:46.667Z,16.04
2019-03-30T16:37:52.092Z,15.95
2019-03-30T16:40:22.287Z,15.72
2019-03-30T16:42:52.456Z,15.46
2019-03-30T16:45:22.630Z,15.30
2019-03-30T16:47:52.770Z,15.10
2019-03-30T16:50:22.946Z,15.10
2019-03-30T16:52:53.076Z,15.10
2019-03-30T16:55:23.242Z,15.19
2019-03-30T16:57:53.400Z,14.97
2019-03-30T17:00:23.614Z,14.94
2019-03-30T17:02:53.831Z,14.90
2019-03-30T17:05:23.972Z,14.67
2019-03-30T17:07:54.180Z,14.69
2019-03-30T17:10:24.311Z,14.56
2019-03-30T17:12:54.436Z,14.38
2019-03-30T17:15:27.952Z,14.41
2019-03-30T17:17:58.076Z,14.34
2019-03-30T17:20:28.289Z,14.40
2019-03-30T17:22:59.032Z,14.35
2019-03-30T17:25:29.295Z,14.28
2019-03-30T17:27:59.425Z,14.15
2019-03-30T17:30:29.550Z,14.08
2019-03-30T17:32:59.799Z,14.09
2019-03-30T17:35:29.985Z,13.81
2019-03-30T17:38:00.153Z,14.52
2019-03-30T17:40:30.322Z,13.84
2019-03-30T17:43:00.468Z,13.79
2019-03-30T17:45:30.952Z,13.31
2019-03-30T17:48:01.104Z,13.50
2019-03-30T17:50:31.234Z,13.29
2019-03-30T17:53:01.354Z,13.26
2019-03-30T17:55:33.906Z,13.22
2019-03-30T17:58:12.916Z,13.18
2019-03-30T18:00:35.285Z,13.16
2019-03-30T18:03:05.417Z,13.14
2019-03-30T18:05:35.590Z,13.14
2019-03-30T18:08:05.823Z,13.05
2019-03-30T18:10:36.032Z,13.08
2019-03-30T18:13:06.183Z,12.99
2019-03-30T18:15:36.285Z,13.03
2019-03-30T18:18:06.463Z,13.07
2019-03-30T18:20:37.646Z,13.07
2019-03-30T18:23:07.832Z,13.09
2019-03-30T18:25:38.027Z,13.04
2019-03-30T18:28:08.157Z,13.04
2019-03-30T18:30:40.143Z,13.07
2019-03-30T18:33:10.397Z,12.97
2019-03-30T18:35:41.647Z,13.03
2019-03-30T18:38:13.165Z,12.96
2019-03-30T18:40:43.534Z,13.01
2019-03-30T18:43:13.677Z,12.92
2019-03-30T18:45:43.816Z,12.91
2019-03-30T18:48:15.198Z,12.95
2019-03-30T18:50:46.051Z,12.90
2019-03-30T18:53:17.289Z,12.99
2019-03-30T18:55:47.574Z,12.91
2019-03-30T18:58:17.704Z,12.86
2019-03-30T19:00:47.971Z,12.91
2019-03-30T19:03:20.037Z,12.97
2019-03-30T19:05:50.180Z,12.81
2019-03-30T19:08:20.511Z,12.74
2019-03-30T19:10:50.721Z,12.58
2019-03-30T19:13:21.008Z,12.63
2019-03-30T19:15:51.203Z,12.55
2019-03-30T19:18:21.525Z,12.52
2019-03-30T19:20:51.761Z,12.58
2019-03-30T19:23:22.017Z,12.51
2019-03-30T19:25:52.288Z,12.69
2019-03-30T19:28:22.523Z,12.56
2019-03-30T19:30:52.738Z,12.58
2019-03-30T19:33:23.023Z,12.57
2019-03-30T19:35:53.218Z,12.62
2019-03-30T19:38:23.514Z,12.70
2019-03-30T19:40:53.761Z,12.69
2019-03-30T19:43:23.972Z,12.70
2019-03-30T19:45:54.202Z,12.58
2019-03-30T19:48:24.410Z,12.61
2019-03-30T19:50:54.657Z,12.63
2019-03-30T19:53:24.887Z,12.56
2019-03-30T19:55:55.055Z,12.59
2019-03-30T19:58:25.282Z,12.57
2019-03-30T20:00:55.525Z,12.48
2019-03-30T20:03:25.963Z,12.49
2019-03-30T20:05:56.167Z,12.48
2019-03-30T20:08:26.424Z,12.49
2019-03-30T20:10:56.663Z,12.52
2019-03-30T20:13:26.889Z,12.42
2019-03-30T20:15:57.126Z,12.45
2019-03-30T20:18:27.443Z,12.41
2019-03-30T20:20:57.692Z,12.42
2019-03-30T20:23:28.037Z,12.46
2019-03-30T20:25:58.270Z,12.32
2019-03-30T20:28:28.489Z,12.50
2019-03-30T20:30:58.824Z,12.44
2019-03-30T20:33:29.106Z,12.45
2019-03-30T20:35:59.329Z,12.49
2019-03-30T20:38:29.604Z,12.49
2019-03-30T20:40:59.816Z,12.41
2019-03-30T20:43:29.967Z,12.60
2019-03-30T20:46:00.329Z,12.68
2019-03-30T20:48:30.579Z,12.63
2019-03-30T20:51:00.756Z,12.67
2019-03-30T20:53:31.016Z,12.63
2019-03-30T20:56:01.281Z,12.69
2019-03-30T20:58:31.567Z,12.79
2019-03-30T21:01:01.965Z,12.55
2019-03-30T21:03:32.196Z,12.62
2019-03-30T21:06:02.421Z,12.67
2019-03-30T21:08:32.639Z,12.67
2019-03-30T21:11:02.865Z,12.66
2019-03-30T21:13:33.116Z,12.63
2019-03-30T21:16:03.368Z,12.62
2019-03-30T21:18:33.651Z,12.76
2019-03-30T21:21:03.990Z,12.76
2019-03-30T21:23:34.267Z,12.72
2019-03-30T21:26:04.792Z,12.73
2019-03-30T21:28:35.050Z,12.74
2019-03-30T21:31:05.400Z,12.83
2019-03-30T21:33:35.634Z,12.63
2019-03-30T21:36:05.877Z,12.79
2019-03-30T21:38:36.198Z,12.85
2019-03-30T21:41:06.582Z,12.72
2019-03-30T21:43:36.796Z,12.40
2019-03-30T21:46:07.234Z,12.36
2019-03-30T21:48:37.530Z,12.30
2019-03-30T21:51:07.847Z,12.36
2019-03-30T21:53:38.073Z,12.05
2019-03-30T21:56:08.308Z,11.82
2019-03-30T21:58:38.560Z,12.36
2019-03-30T22:01:08.937Z,12.33
2019-03-30T22:03:39.254Z,12.14
2019-03-30T22:06:09.466Z,11.89
2019-03-30T22:08:40.197Z,11.87
2019-03-30T22:11:10.498Z,11.19
2019-03-30T22:13:40.682Z,11.35
2019-03-30T22:16:10.940Z,11.22
2019-03-30T22:18:41.219Z,11.03
2019-03-30T22:21:11.421Z,10.79
2019-03-30T22:23:41.682Z,10.73
2019-03-30T22:26:12.013Z,10.66
2019-03-30T22:28:42.281Z,10.30
2019-03-30T22:31:12.562Z,10.27
2019-03-30T22:33:42.766Z,10.21
2019-03-30T22:36:13.010Z,10.18
2019-03-30T22:38:43.287Z,10.20
2019-03-30T22:41:13.586Z,10.19
2019-03-30T22:43:43.795Z,10.10
2019-03-30T22:46:14.035Z,10.31
2019-03-30T22:48:44.295Z,10.33
2019-03-30T22:51:14.545Z,10.37
2019-03-30T22:53:44.766Z,10.59
2019-03-30T22:56:15.064Z,10.37
2019-03-30T22:58:45.396Z,10.27
2019-03-30T23:01:18.238Z,10.24
2019-03-30T23:03:48.635Z,10.36
2019-03-30T23:06:18.987Z,10.27
2019-03-30T23:08:49.265Z,10.37
2019-03-30T23:11:19.581Z,10.08
2019-03-30T23:13:49.876Z,10.18
2019-03-30T23:16:20.145Z,9.65
2019-03-30T23:18:50.443Z,9.76
2019-03-30T23:21:20.669Z,9.92
2019-03-30T23:23:50.879Z,9.96
2019-03-30T23:26:21.183Z,9.55
2019-03-30T23:28:51.414Z,9.47
2019-03-30T23:31:21.698Z,9.47
2019-03-30T23:33:51.921Z,9.50
2019-03-30T23:36:22.209Z,9.53
2019-03-30T23:38:52.474Z,9.68
2019-03-30T23:41:22.656Z,9.72
2019-03-30T23:43:52.920Z,9.82
2019-03-30T23:46:23.136Z,9.74
2019-03-30T23:48:53.328Z,9.50
2019-03-30T23:51:23.655Z,9.34
2019-03-30T23:53:53.876Z,9.21
2019-03-30T23:56:28.019Z,9.22
2019-03-30T23:58:58.297Z,9.02
